Cecilton, Maryland
Current Conditions -  °F | °C
As of 6:51 PM on Sunday 25 Jan 2015 (Local Time) from KILG Reporting Station
Overcast Overcast  
Wind Chill: 42°   Ceiling: 4100
Heat Index: 42°   Visibility: 10mi
Dew Point: 32°   Wind: 3mph
Humidity: 67%   Direction: 10°N
Pressure: 29.9"   Gusts: NA
Location:  39.4°N, 75.87°W
Report Text: KILG 252351Z 01003KT 10SM BKN041 OVC050 06/00 A2990 RMK AO2 SLP124 T00560000 10089 20050 53024
Loading
Personal Weather Stations






























Interactive Weather Map New forecast layout! Learn more

10-Day Weather Forecast

Advertisements
Track Severe Weather on mobile